Onondaga, Michigan
Current Conditions -  °F | °C
As of 8:31 PM on Wednesday 26 Nov 2014 (Local Time) from KTEW Reporting Station
Overcast Overcast  
Wind Chill: 24°   Ceiling: 3900
Heat Index: 29°   Visibility: 10mi
Dew Point: 24°   Wind: 5mph
Humidity: 80%   Direction: 10°N
Pressure: 30.09"   Gusts: NA
Location:  42.44°N, 84.56°W
Report Text: KTEW 270131Z AUTO 01004KT 10SM OVC039 M01/M04 A3009 RMK AO2 T10151045
Loading
Personal Weather Stations






























Interactive Weather Map New forecast layout! Learn more

10-Day Weather Forecast

Advertisements
Track Severe Weather on mobile